Howard, Kansas
Current Conditions -  °F | °C
As of 1:15 PM on Friday 28 Nov 2014 (Local Time) from KIDP Reporting Station
Clear Clear  
Wind Chill: 61°   Ceiling: Unl
Heat Index: 61°   Visibility: 10mi
Dew Point: 32°   Wind: 13mph
Humidity: 34%   Direction: 190°S
Pressure: 29.92"   Gusts: 20mph
Location:  37.47°N, 96.26°W
Report Text: KIDP 281915Z AUTO 19011G17KT 10SM CLR 16/00 A2992 RMK AO2
Loading
Personal Weather Stations






























Interactive Weather Map New forecast layout! Learn more

10-Day Weather Forecast

Advertisements
Track Severe Weather on mobile